Time;durP1;ratioP1;P1;durP2;ratioP2;P2;SDS_P1;SDS_P2;PMS_P1;PMS_P2;Temp;Humidity;BMP_temperature;BMP_pressure;BME280_temperature;BME280_humidity;BME280_pressure;Samples;Min_cycle;Max_cycle;Signal;HPM_P1;HPM_P2
2021/08/26 00:07:08;;;;;;;10.80;4.90;;;;;;;14.31;100.00;101355.13;5028945;28;20249;-70
2021/08/26 00:09:36;;;;;;;9.27;4.45;;;;;;;14.33;100.00;101355.78;5029286;28;20037;-70
2021/08/26 00:12:05;;;;;;;10.82;5.10;;;;;;;14.35;100.00;101357.28;5027640;28;20496;-69
2021/08/26 00:14:35;;;;;;;11.65;4.88;;;;;;;14.38;100.00;101354.25;5033518;28;20111;-70
2021/08/26 00:17:03;;;;;;;12.63;5.53;;;;;;;14.38;100.00;101351.56;5028747;28;20049;-70
2021/08/26 00:19:31;;;;;;;14.95;5.65;;;;;;;14.35;100.00;101351.91;5029309;28;20096;-69
2021/08/26 00:21:59;;;;;;;11.98;5.88;;;;;;;14.37;100.00;101339.13;5034594;28;20373;-69
2021/08/26 00:24:26;;;;;;;10.10;6.03;;;;;;;14.38;100.00;101330.06;5032966;28;20075;-69
2021/08/26 00:26:54;;;;;;;10.95;5.40;;;;;;;14.38;100.00;101335.44;5031942;28;20053;-69
2021/08/26 00:29:22;;;;;;;11.82;5.50;;;;;;;14.39;100.00;101330.94;5031852;28;20041;-70
2021/08/26 00:31:51;;;;;;;13.82;7.13;;;;;;;14.38;100.00;101323.88;5030773;28;20334;-70
2021/08/26 00:34:19;;;;;;;13.65;5.93;;;;;;;14.38;100.00;101318.50;5026219;28;20053;-70
2021/08/26 00:36:48;;;;;;;13.38;6.43;;;;;;;14.39;100.00;101322.88;5027332;28;20041;-70
2021/08/26 00:39:17;;;;;;;10.63;5.50;;;;;;;14.40;100.00;101311.94;5029253;28;20037;-70
2021/08/26 00:41:44;;;;;;;14.00;6.22;;;;;;;14.41;100.00;101313.59;5030454;28;20046;-69
2021/08/26 00:44:12;;;;;;;10.57;5.75;;;;;;;14.45;100.00;101303.34;5031748;28;20155;-70
2021/08/26 00:46:41;;;;;;;13.20;5.47;;;;;;;14.39;100.00;101299.50;5027140;28;20045;-69
2021/08/26 00:49:11;;;;;;;12.88;6.40;;;;;;;14.42;100.00;101299.16;5030321;28;20078;-69
2021/08/26 00:51:39;;;;;;;11.80;5.80;;;;;;;14.42;100.00;101299.16;5029636;28;20330;-70
2021/08/26 00:54:08;;;;;;;15.98;5.75;;;;;;;14.44;100.00;101298.97;5029875;28;20056;-69
2021/08/26 00:56:36;;;;;;;12.57;5.93;;;;;;;14.43;100.00;101299.97;5029670;28;20049;-69
2021/08/26 00:59:05;;;;;;;11.30;5.35;;;;;;;14.43;100.00;101299.97;5027916;28;20434;-71
2021/08/26 01:01:39;;;;;;;11.73;5.72;;;;;;;14.40;100.00;101295.81;5026037;28;20498;-70
2021/08/26 01:04:16;;;;;;;12.50;6.00;;;;;;;14.43;100.00;101302.66;5025084;28;20037;-70
2021/08/26 01:06:50;;;;;;;15.05;6.03;;;;;;;14.42;100.00;101288.41;5029316;28;20385;-70
2021/08/26 01:09:21;;;;;;;14.32;6.38;;;;;;;14.45;100.00;101297.97;5026081;28;20049;-70
2021/08/26 01:11:49;;;;;;;13.57;6.13;;;;;;;14.40;100.00;101290.44;5025793;28;20580;-70
2021/08/26 01:14:18;;;;;;;13.88;6.78;;;;;;;14.39;100.00;101288.75;5028199;28;20049;-70
2021/08/26 01:16:47;;;;;;;14.77;5.75;;;;;;;14.43;100.00;101278.47;5029647;28;20368;-70
2021/08/26 01:19:16;;;;;;;13.82;5.78;;;;;;;14.42;100.00;101280.34;5029586;28;20384;-70
2021/08/26 01:21:44;;;;;;;14.05;6.10;;;;;;;14.43;100.00;101283.84;5027802;28;20053;-70
2021/08/26 01:24:15;;;;;;;16.55;6.15;;;;;;;14.43;100.00;101284.72;5028427;28;20425;-70
2021/08/26 01:26:47;;;;;;;13.82;5.45;;;;;;;14.43;100.00;101287.41;5031630;28;20472;-70
2021/08/26 01:29:15;;;;;;;14.82;6.03;;;;;;;14.43;100.00;101282.03;5028258;28;20049;-70
2021/08/26 01:31:44;;;;;;;16.10;6.07;;;;;;;14.49;100.00;101279.63;5025591;28;20049;-70
2021/08/26 01:34:14;;;;;;;10.60;4.80;;;;;;;14.48;100.00;101278.78;5025759;28;20051;-70
2021/08/26 01:36:42;;;;;;;11.95;5.68;;;;;;;14.45;100.00;101279.97;5027249;28;20103;-70
2021/08/26 01:39:12;;;;;;;12.57;5.68;;;;;;;14.47;100.00;101279.81;5028016;28;20037;-70
2021/08/26 01:41:40;;;;;;;13.55;5.32;;;;;;;14.45;100.00;101277.28;5025151;28;20049;-70
2021/08/26 01:44:10;;;;;;;14.73;5.38;;;;;;;14.45;100.00;101271.09;5028524;28;20063;-70
2021/08/26 01:46:38;;;;;;;17.45;5.97;;;;;;;14.46;100.00;101273.59;5028965;28;20433;-71
2021/08/26 01:49:06;;;;;;;15.80;6.03;;;;;;;14.49;100.00;101268.88;5027395;28;20115;-70
2021/08/26 01:51:34;;;;;;;15.98;5.53;;;;;;;14.47;100.00;101269.06;5028642;28;20099;-70
2021/08/26 01:54:02;;;;;;;19.65;6.55;;;;;;;14.47;100.00;101271.75;5024514;28;20056;-70
2021/08/26 01:56:30;;;;;;;17.55;6.32;;;;;;;14.50;100.00;101273.25;5027068;28;20433;-70
2021/08/26 01:58:58;;;;;;;17.27;6.07;;;;;;;14.49;100.00;101271.56;5026388;28;20434;-70
2021/08/26 02:01:28;;;;;;;18.20;5.97;;;;;;;14.49;100.00;101268.88;5025732;28;20042;-70
2021/08/26 02:03:56;;;;;;;17.92;6.95;;;;;;;14.53;100.00;101273.75;5026802;28;20037;-70
2021/08/26 02:06:24;;;;;;;18.27;7.05;;;;;;;14.53;100.00;101276.44;5023920;28;20103;-70
2021/08/26 02:08:52;;;;;;;17.17;6.45;;;;;;;14.53;100.00;101267.50;5027469;28;20375;-71
2021/08/26 02:11:19;;;;;;;15.45;6.72;;;;;;;14.56;100.00;101272.53;5030055;28;20042;-71
2021/08/26 02:13:47;;;;;;;19.92;6.25;;;;;;;14.52;100.00;101266.69;5024403;28;20102;-70
2021/08/26 02:16:16;;;;;;;16.33;5.80;;;;;;;14.50;100.00;101270.56;5024815;28;20052;-71
2021/08/26 02:18:45;;;;;;;16.45;5.65;;;;;;;14.52;100.00;101271.22;5025421;28;20052;-71
2021/08/26 02:21:14;;;;;;;17.23;5.50;;;;;;;14.54;100.00;101266.50;5023809;28;20519;-71
2021/08/26 02:23:41;;;;;;;24.45;5.97;;;;;;;14.56;100.00;101272.53;5001258;28;20103;-71
2021/08/26 02:26:09;;;;;;;12.23;4.80;;;;;;;14.56;100.00;101275.22;5027891;28;20107;-72
2021/08/26 02:28:37;;;;;;;12.68;4.70;;;;;;;14.57;100.00;101274.19;5025804;28;20057;-72
2021/08/26 02:31:05;;;;;;;14.57;4.38;;;;;;;14.55;100.00;101279.75;5021296;28;20046;-71
2021/08/26 02:33:33;;;;;;;13.73;4.80;;;;;;;14.57;100.00;101274.19;5023160;28;20355;-72
2021/08/26 02:36:03;;;;;;;11.40;3.78;;;;;;;14.57;100.00;101274.19;5024223;28;20441;-71
2021/08/26 02:38:30;;;;;;;12.20;4.60;;;;;;;14.57;100.00;101274.19;5025817;28;20034;-72
2021/08/26 02:40:58;;;;;;;12.65;4.68;;;;;;;14.62;100.00;101275.38;5021345;28;20060;-71
2021/08/26 02:43:26;;;;;;;12.73;4.15;;;;;;;14.59;100.00;101267.63;5024132;28;20052;-72
2021/08/26 02:45:54;;;;;;;12.52;4.15;;;;;;;14.62;100.00;101267.31;5022699;28;20100;-72
2021/08/26 02:48:22;;;;;;;11.65;4.15;;;;;;;14.58;100.00;101265.97;5027369;28;20048;-72
2021/08/26 02:50:50;;;;;;;13.27;4.60;;;;;;;14.60;100.00;101269.31;5021167;28;20046;-73
2021/08/26 02:53:19;;;;;;;12.48;4.57;;;;;;;14.62;100.00;101274.53;5021881;28;20042;-72
2021/08/26 02:55:47;;;;;;;13.98;4.57;;;;;;;14.60;100.00;101263.09;5023343;28;20041;-75
2021/08/26 02:58:15;;;;;;;12.60;4.32;;;;;;;14.62;100.00;101263.78;5023110;28;20045;-72
2021/08/26 03:00:43;;;;;;;14.25;5.65;;;;;;;14.62;100.00;101259.25;5023500;28;20324;-73
2021/08/26 03:03:11;;;;;;;15.63;5.40;;;;;;;14.61;100.00;101252.16;5026344;28;20072;-72
2021/08/26 03:05:39;;;;;;;15.25;5.88;;;;;;;14.63;100.00;101257.41;5021758;28;20499;-72
2021/08/26 03:08:07;;;;;;;19.85;6.50;;;;;;;14.62;100.00;101253.88;5023029;28;20083;-71
2021/08/26 03:10:36;;;;;;;17.52;5.90;;;;;;;14.63;100.00;101249.34;5021541;28;20451;-71
2021/08/26 03:13:04;;;;;;;15.93;6.07;;;;;;;14.64;100.00;101248.31;5020461;28;20042;-71
2021/08/26 03:15:33;;;;;;;18.02;6.28;;;;;;;14.65;100.00;101244.63;5026458;28;20087;-71
2021/08/26 03:18:01;;;;;;;17.55;6.35;;;;;;;14.63;100.00;101238.59;5027591;28;20076;-71
2021/08/26 03:20:29;;;;;;;15.75;6.35;;;;;;;14.67;100.00;101237.19;5025892;28;20096;-71
2021/08/26 03:22:58;;;;;;;18.17;5.97;;;;;;;14.70;100.00;101246.75;5023619;28;20371;-72
2021/08/26 03:25:26;;;;;;;15.20;5.45;;;;;;;14.70;100.00;101242.22;5017119;28;20060;-71
2021/08/26 03:27:56;;;;;;;17.98;5.90;;;;;;;14.70;100.00;101236.88;5027266;28;20087;-70
2021/08/26 03:30:24;;;;;;;15.43;5.60;;;;;;;14.70;100.00;101233.31;5021015;28;20049;-71
2021/08/26 03:32:52;;;;;;;13.55;5.63;;;;;;;14.70;100.00;101226.09;5028177;28;20441;-71
2021/08/26 03:35:21;;;;;;;10.68;4.90;;;;;;;14.75;100.00;101226.38;5028069;28;20537;-71
2021/08/26 03:37:49;;;;;;;11.75;4.68;;;;;;;14.73;100.00;101223.06;5022882;28;20053;-70
2021/08/26 03:40:18;;;;;;;14.85;5.38;;;;;;;14.73;100.00;101215.00;5024562;28;20045;-70
2021/08/26 03:42:45;;;;;;;14.57;4.25;;;;;;;14.75;100.00;101218.31;5028285;28;20064;-70
2021/08/26 03:45:15;;;;;;;15.45;4.70;;;;;;;14.76;100.00;101217.31;5030368;28;20086;-70
2021/08/26 03:47:42;;;;;;;11.48;3.60;;;;;;;14.75;100.00;101217.50;5025158;28;20052;-69
2021/08/26 03:50:10;;;;;;;15.45;3.67;;;;;;;14.78;100.00;101211.75;5026514;28;20115;-70
2021/08/26 03:52:38;;;;;;;9.50;3.35;;;;;;;14.79;100.00;101214.25;5027772;28;20091;-70
2021/08/26 03:55:08;;;;;;;10.25;3.42;;;;;;;14.78;100.00;101214.44;5022912;28;20107;-69
2021/08/26 03:57:36;;;;;;;13.95;4.80;;;;;;;14.80;100.00;101215.94;5031348;28;20376;-71
2021/08/26 04:00:04;;;;;;;13.82;3.80;;;;;;;14.80;100.00;101215.94;5022990;28;20440;-69
2021/08/26 04:02:34;;;;;;;13.82;4.78;;;;;;;14.86;100.00;101216.25;5012305;28;20425;-70
2021/08/26 04:05:02;;;;;;;12.35;3.83;;;;;;;14.81;100.00;101214.06;5029984;28;20043;-70
2021/08/26 04:07:31;;;;;;;12.05;3.65;;;;;;;14.83;100.00;101221.94;5028812;28;20437;-69
2021/08/26 04:09:59;;;;;;;7.88;3.40;;;;;;;14.70;100.00;101239.56;5027157;28;20464;-68
2021/08/26 04:12:30;;;;;;;4.03;2.20;;;;;;;14.48;100.00;101234.97;5025889;28;20175;-70
2021/08/26 04:14:58;;;;;;;4.43;2.20;;;;;;;14.36;100.00;101232.72;5027467;28;20090;-71
2021/08/26 04:17:26;;;;;;;6.60;2.30;;;;;;;14.30;100.00;101230.72;5025966;28;20049;-71
2021/08/26 04:19:55;;;;;;;5.80;2.08;;;;;;;14.30;100.00;101230.72;5024764;28;20049;-72
2021/08/26 04:22:23;;;;;;;7.55;2.28;;;;;;;14.32;100.00;101234.06;5024906;28;20033;-74
2021/08/26 04:24:51;;;;;;;6.50;2.75;;;;;;;14.26;100.00;101229.38;5024217;28;20034;-73
2021/08/26 04:27:19;;;;;;;6.97;2.25;;;;;;;14.30;100.00;101238.78;5025895;28;20037;-73
2021/08/26 04:29:47;;;;;;;4.70;2.25;;;;;;;14.27;100.00;101237.28;5022992;28;20046;-74
2021/08/26 04:32:15;;;;;;;6.28;2.10;;;;;;;14.27;100.00;101244.50;5026595;28;20091;-73
2021/08/26 04:34:42;;;;;;;6.28;2.25;;;;;;;14.25;100.00;101241.16;5026782;28;20045;-70
2021/08/26 04:37:12;;;;;;;5.68;2.55;;;;;;;14.25;100.00;101241.16;5025761;28;20433;-69
2021/08/26 04:39:40;;;;;;;5.65;2.63;;;;;;;14.24;100.00;101236.81;5024354;28;20488;-72
2021/08/26 04:42:08;;;;;;;3.65;1.90;;;;;;;14.26;100.00;101245.50;5025991;28;20046;-72
2021/08/26 04:44:36;;;;;;;6.32;3.63;;;;;;;14.22;100.00;101238.84;5023563;28;20099;-72
2021/08/26 04:47:04;;;;;;;6.55;2.22;;;;;;;14.26;100.00;101229.38;5028793;28;20042;-65
2021/08/26 04:49:32;;;;;;;4.93;2.40;;;;;;;14.20;100.00;101214.81;5024997;28;20065;-65
2021/08/26 04:52:00;;;;;;;7.75;2.80;;;;;;;14.18;100.00;101202.59;5028437;28;20050;-64
2021/08/26 04:54:29;;;;;;;11.32;2.67;;;;;;;14.05;100.00;101187.06;5026272;28;20041;-65
2021/08/26 04:56:57;;;;;;;8.73;2.30;;;;;;;14.14;100.00;101187.84;5021262;28;20053;-65
2021/08/26 04:59:25;;;;;;;7.40;2.40;;;;;;;14.11;100.00;101179.13;5023063;28;20050;-66
2021/08/26 05:01:53;;;;;;;6.22;2.53;;;;;;;14.07;100.00;101172.44;5027010;28;20376;-65
2021/08/26 05:04:23;;;;;;;6.60;2.58;;;;;;;14.06;100.00;101165.41;5024625;28;20425;-65
2021/08/26 05:06:51;;;;;;;4.43;2.90;;;;;;;14.02;100.00;101164.09;5024130;28;20052;-65
2021/08/26 05:09:19;;;;;;;9.30;3.30;;;;;;;14.02;100.00;101171.28;5026250;28;20106;-65
2021/08/26 05:11:48;;;;;;;5.97;2.08;;;;;;;14.05;100.00;101158.38;5023071;28;20057;-65
2021/08/26 05:14:16;;;;;;;10.77;2.67;;;;;;;14.03;100.00;101155.00;5022992;28;20348;-64
2021/08/26 05:16:45;;;;;;;8.75;2.80;;;;;;;14.08;100.00;101152.63;5021820;28;20076;-64
2021/08/26 05:19:13;;;;;;;8.27;2.47;;;;;;;14.02;100.00;101158.72;5022190;28;20042;-65
2021/08/26 05:21:41;;;;;;;7.10;2.47;;;;;;;13.97;100.00;101157.59;5023965;28;20061;-64
2021/08/26 05:24:08;;;;;;;7.65;2.70;;;;;;;13.97;100.00;101154.91;5022643;28;20080;-64
2021/08/26 05:26:36;;;;;;;10.82;2.83;;;;;;;13.80;100.00;101159.53;5024413;28;20053;-64
2021/08/26 05:29:06;;;;;;;10.45;3.45;;;;;;;13.69;100.00;101163.44;5023244;28;20072;-63
2021/08/26 05:31:33;;;;;;;10.77;2.90;;;;;;;13.75;100.00;101173.44;5022538;28;20644;-63
2021/08/26 05:34:01;;;;;;;7.95;3.17;;;;;;;13.73;100.00;101170.94;5023285;28;20045;-63
2021/08/26 05:36:29;;;;;;;9.45;2.90;;;;;;;13.69;100.00;101169.63;5021062;28;20042;-63
2021/08/26 05:38:57;;;;;;;9.25;3.15;;;;;;;13.80;100.00;101176.44;5023730;28;20068;-63
2021/08/26 05:41:25;;;;;;;11.05;3.17;;;;;;;13.87;100.00;101169.38;5021720;28;20047;-63
2021/08/26 05:43:53;;;;;;;6.25;2.97;;;;;;;13.92;100.00;101169.69;5025065;28;20562;-64
2021/08/26 05:46:22;;;;;;;10.35;3.67;;;;;;;13.90;100.00;101170.88;5025110;28;20041;-65
2021/08/26 05:48:50;;;;;;;18.73;3.75;;;;;;;13.93;100.00;101167.81;5021842;28;20128;-61
2021/08/26 05:51:18;;;;;;;8.95;3.22;;;;;;;13.87;100.00;101161.31;5023343;28;20092;-62
2021/08/26 05:53:46;;;;;;;7.95;3.63;;;;;;;13.88;100.00;101178.28;5022014;28;20053;-61
2021/08/26 05:56:14;;;;;;;6.82;3.05;;;;;;;13.97;100.00;101163.78;5024833;28;20041;-61
2021/08/26 05:58:42;;;;;;;8.13;3.88;;;;;;;14.01;100.00;101173.16;5025101;28;20042;-61
2021/08/26 06:01:10;;;;;;;9.65;3.67;;;;;;;14.02;100.00;101168.59;5023192;28;20057;-61
2021/08/26 06:03:39;;;;;;;8.30;3.38;;;;;;;14.04;100.00;101172.78;5023057;28;20042;-62
2021/08/26 06:06:07;;;;;;;7.88;3.30;;;;;;;14.05;100.00;101179.03;5023986;28;20471;-61
2021/08/26 06:08:35;;;;;;;5.68;3.05;;;;;;;14.13;100.00;101160.16;5017073;28;20410;-61
2021/08/26 06:11:04;;;;;;;9.00;2.67;;;;;;;14.16;100.00;101164.34;5023085;28;20426;-61
2021/08/26 06:13:32;;;;;;;10.13;3.45;;;;;;;14.10;100.00;101166.72;5022935;28;20045;-62
2021/08/26 06:16:00;;;;;;;7.25;3.25;;;;;;;14.07;100.00;101168.91;5025509;28;20038;-61
2021/08/26 06:18:28;;;;;;;10.75;3.17;;;;;;;14.17;100.00;101160.63;5021441;28;20069;-62
2021/08/26 06:20:57;;;;;;;6.75;3.55;;;;;;;14.15;100.00;101163.50;5021359;28;20033;-61
2021/08/26 06:23:25;;;;;;;8.35;2.88;;;;;;;14.22;100.00;101159.09;5023021;28;20049;-62
2021/08/26 06:25:53;;;;;;;7.10;3.05;;;;;;;14.24;100.00;101161.59;5022998;28;20049;-61
2021/08/26 06:28:21;;;;;;;9.18;2.90;;;;;;;14.29;100.00;101157.34;5024774;28;20049;-62
2021/08/26 06:30:48;;;;;;;11.15;3.38;;;;;;;14.34;100.00;101161.34;5019000;28;20087;-62
2021/08/26 06:33:16;;;;;;;11.55;3.80;;;;;;;14.38;100.00;101162.66;5020572;28;20329;-61
2021/08/26 06:35:44;;;;;;;10.68;3.88;;;;;;;14.42;100.00;101172.03;5023722;28;20092;-62
2021/08/26 06:38:14;;;;;;;13.75;3.35;;;;;;;14.43;100.00;101171.88;5022373;28;20395;-62
2021/08/26 06:40:42;;;;;;;11.13;3.38;;;;;;;14.49;100.00;101169.44;5020697;28;20045;-62
2021/08/26 06:43:10;;;;;;;8.90;3.97;;;;;;;14.42;100.00;101164.81;5023667;28;20041;-62
2021/08/26 06:45:37;;;;;;;11.00;3.28;;;;;;;14.46;100.00;101170.66;5021771;28;20049;-62
2021/08/26 06:48:06;;;;;;;10.93;3.30;;;;;;;14.58;100.00;101174.59;5024587;28;20095;-61
2021/08/26 06:50:33;;;;;;;7.18;3.15;;;;;;;14.85;100.00;101167.00;5025237;28;20045;-61
2021/08/26 06:53:01;;;;;;;9.45;3.30;;;;;;;14.67;100.00;101164.63;5022841;28;20046;-62
2021/08/26 06:55:30;;;;;;;8.98;2.83;;;;;;;14.76;100.00;101168.09;5029182;28;20087;-61
2021/08/26 06:57:58;;;;;;;10.43;3.72;;;;;;;14.90;100.00;101166.44;5027283;28;20061;-63
2021/08/26 07:00:26;;;;;;;10.85;3.38;;;;;;;15.22;100.00;101159.88;5023639;28;20100;-63
2021/08/26 07:02:54;;;;;;;9.23;4.30;;;;;;;15.14;100.00;101163.50;5025844;28;20068;-63
2021/08/26 07:05:23;;;;;;;13.77;3.65;;;;;;;15.41;100.00;101169.25;5028593;28;20038;-63
2021/08/26 07:07:51;;;;;;;7.13;2.70;;;;;;;15.34;100.00;101173.72;5028543;28;20340;-62
2021/08/26 07:10:19;;;;;;;10.20;3.45;;;;;;;15.18;100.00;101172.03;5024097;28;20050;-62
2021/08/26 07:12:48;;;;;;;12.00;3.80;;;;;;;15.05;100.00;101169.16;5028015;28;20104;-62
2021/08/26 07:15:16;;;;;;;11.38;3.55;;;;;;;15.22;100.00;101175.19;5026089;28;20349;-63
2021/08/26 07:17:44;;;;;;;11.15;3.38;;;;;;;15.39;100.00;101179.34;5025671;28;20041;-62
2021/08/26 07:20:13;;;;;;;8.85;3.90;;;;;;;15.35;100.00;101169.16;5022926;28;20392;-62
2021/08/26 07:22:41;;;;;;;10.30;3.58;;;;;;;15.18;100.00;101173.88;5006346;28;20087;-62
2021/08/26 07:25:10;;;;;;;11.23;3.78;;;;;;;15.33;100.00;101172.88;5024632;28;20057;-62
2021/08/26 07:27:38;;;;;;;14.40;3.58;;;;;;;15.14;100.00;101174.25;5026151;28;20096;-63
2021/08/26 07:30:08;;;;;;;13.93;3.78;;;;;;;15.15;100.00;101175.09;5027148;28;20045;-62
2021/08/26 07:32:36;;;;;;;12.27;3.35;;;;;;;15.23;100.00;101175.00;5029357;28;20334;-63
2021/08/26 07:35:04;;;;;;;9.88;3.40;;;;;;;15.38;100.00;101166.94;5026160;28;20099;-63
2021/08/26 07:37:32;;;;;;;11.60;3.72;;;;;;;15.55;100.00;101166.72;5028584;28;20037;-63
2021/08/26 07:40:00;;;;;;;10.07;3.25;;;;;;;15.65;100.00;101167.28;5022161;28;20425;-62
2021/08/26 07:42:28;;;;;;;10.05;3.65;;;;;;;15.53;100.00;101160.72;5026693;28;20045;-63
2021/08/26 07:45:02;;;;;;;9.77;3.83;;;;;;;15.86;100.00;101149.53;5025291;28;20045;-63
2021/08/26 07:47:31;;;;;;;10.43;3.33;;;;;;;15.52;100.00;101157.16;5027644;28;20037;-62
2021/08/26 07:50:04;;;;;;;14.00;4.47;;;;;;;16.01;100.00;101153.84;5025226;28;20388;-62
2021/08/26 07:52:33;;;;;;;13.93;4.55;;;;;;;15.92;100.00;101156.84;5027523;28;20049;-62
2021/08/26 07:55:02;;;;;;;14.93;3.55;;;;;;;15.63;100.00;101140.53;5025017;28;20045;-63
2021/08/26 07:57:30;;;;;;;13.40;3.40;;;;;;;15.75;100.00;101148.13;5024436;28;20042;-62
2021/08/26 07:59:58;;;;;;;12.85;3.65;;;;;;;16.05;100.00;101156.16;5024437;28;20103;-62
2021/08/26 08:02:26;;;;;;;12.77;3.67;;;;;;;16.44;100.00;101146.78;5026801;28;20037;-62
2021/08/26 08:04:56;;;;;;;8.75;3.25;;;;;;;16.52;100.00;101146.66;5026978;28;20049;-63
2021/08/26 08:07:24;;;;;;;11.40;3.65;;;;;;;16.60;100.00;101145.66;5023818;28;20041;-63
2021/08/26 08:09:52;;;;;;;9.90;2.95;;;;;;;16.82;100.00;101144.59;5025011;28;20045;-63
2021/08/26 08:12:22;;;;;;;9.50;3.55;;;;;;;16.56;100.00;101149.78;5025442;28;20044;-62
2021/08/26 08:14:50;;;;;;;5.05;2.70;;;;;;;16.35;100.00;101156.88;5025630;28;20045;-62
2021/08/26 08:17:18;;;;;;;5.03;2.28;;;;;;;16.49;100.00;101147.88;5026209;28;20038;-63
2021/08/26 08:19:46;;;;;;;5.43;2.33;;;;;;;16.46;100.00;101137.50;5023478;28;20060;-63
2021/08/26 08:22:15;;;;;;;16.20;2.97;;;;;;;16.44;100.00;101128.75;5027604;28;20045;-62
2021/08/26 08:24:43;;;;;;;5.65;2.83;;;;;;;16.49;100.00;101131.69;5025533;28;20049;-62
2021/08/26 08:27:11;;;;;;;11.65;3.00;;;;;;;16.69;100.00;101137.25;5026001;28;20103;-62
2021/08/26 08:29:39;;;;;;;10.90;2.80;;;;;;;16.76;100.00;101134.59;5023447;28;20425;-62
2021/08/26 08:32:07;;;;;;;6.28;2.83;;;;;;;16.93;100.00;101145.13;5025339;28;20119;-62
2021/08/26 08:34:35;;;;;;;7.65;3.20;;;;;;;16.43;100.00;101145.97;5027412;28;20052;-62
2021/08/26 08:37:04;;;;;;;12.60;3.38;;;;;;;16.74;100.00;101138.53;5024079;28;20174;-62
2021/08/26 08:39:33;;;;;;;7.80;2.97;;;;;;;17.17;100.00;101136.56;5023501;28;20053;-62
2021/08/26 08:42:01;;;;;;;8.18;3.45;;;;;;;16.84;100.00;101131.78;5023818;28;20044;-62
2021/08/26 08:44:29;;;;;;;8.38;3.15;;;;;;;16.78;100.00;101127.16;5024023;28;20045;-62
2021/08/26 08:46:58;;;;;;;7.93;2.80;;;;;;;16.46;100.00;101134.78;5025632;28;20045;-62
2021/08/26 08:49:26;;;;;;;8.85;2.25;;;;;;;16.80;100.00;101130.50;5024000;28;20045;-62
2021/08/26 08:51:56;;;;;;;6.00;2.55;;;;;;;16.60;100.00;101126.81;5025208;28;20072;-63
2021/08/26 08:54:24;;;;;;;7.32;2.28;;;;;;;16.74;100.00;101135.84;5023870;28;20395;-63
2021/08/26 08:56:53;;;;;;;5.47;2.65;;;;;;;16.68;100.00;101137.44;5025293;28;20247;-63
2021/08/26 08:59:21;;;;;;;6.07;2.13;;;;;;;16.62;100.00;101138.25;5024112;28;20099;-62
2021/08/26 09:01:52;;;;;;;4.63;2.45;;;;;;;17.16;100.00;101134.06;5021534;28;20045;-62
2021/08/26 09:04:21;;;;;;;11.43;3.00;;;;;;;16.89;100.00;101122.28;5026248;28;20076;-62
2021/08/26 09:06:50;;;;;;;6.30;2.50;;;;;;;16.90;100.00;101129.31;5025849;28;20136;-62
2021/08/26 09:09:20;;;;;;;8.43;4.68;;;;;;;16.61;100.00;101132.00;5023791;28;20045;-62
2021/08/26 09:11:52;;;;;;;5.30;2.13;;;;;;;16.35;100.00;101128.06;5018723;28;20478;-62
2021/08/26 09:14:25;;;;;;;10.20;2.17;;;;;;;16.18;100.00;101126.66;5024702;28;20064;-62
2021/08/26 09:16:54;;;;;;;5.60;1.98;;;;;;;16.17;100.00;101135.75;5024282;28;20049;-62
2021/08/26 09:19:29;;;;;;;8.05;1.90;;;;;;;15.95;100.00;101135.75;5024739;28;20474;-64
2021/08/26 09:21:58;;;;;;;10.13;2.17;;;;;;;15.82;100.00;101133.75;5023109;28;20283;-63
2021/08/26 09:24:43;;;;;;;4.95;1.90;;;;;;;15.57;100.00;101145.84;5022468;28;20131;-63
2021/08/26 09:27:11;;;;;;;6.60;2.08;;;;;;;15.46;100.00;101157.94;5024357;28;20075;-63
2021/08/26 09:30:05;;;;;;;9.63;3.20;;;;;;;15.37;100.00;101151.81;5022226;28;20095;-63
2021/08/26 09:32:34;;;;;;;5.75;1.98;;;;;;;15.68;100.00;101158.84;5025006;28;20433;-63
2021/08/26 09:35:17;;;;;;;6.82;2.33;;;;;;;15.88;100.00;101158.25;5023667;28;20428;-63
2021/08/26 09:37:47;;;;;;;4.30;1.80;;;;;;;16.06;100.00;101150.59;5020137;28;20045;-62
2021/08/26 09:40:16;;;;;;;6.25;2.20;;;;;;;16.84;100.00;101144.41;5022175;28;20045;-63
2021/08/26 09:42:45;;;;;;;4.60;1.65;;;;;;;16.92;100.00;101132.69;5021441;28;20052;-64
2021/08/26 09:45:18;;;;;;;7.15;2.33;;;;;;;17.54;100.00;101142.56;5024739;28;20037;-63
2021/08/26 09:48:00;;;;;;;6.10;2.00;;;;;;;17.54;100.00;101130.94;5025851;28;20037;-63
2021/08/26 09:50:45;;;;;;;6.13;3.40;;;;;;;17.27;100.00;101135.38;5016821;28;20045;-63
2021/08/26 09:53:17;;;;;;;4.53;2.03;;;;;;;17.10;100.00;101138.38;5024559;28;20123;-63
2021/08/26 09:56:02;;;;;;;5.13;2.03;;;;;;;16.54;100.00;101149.97;5022040;28;20037;-63
2021/08/26 09:58:32;;;;;;;5.32;2.05;;;;;;;16.06;100.00;101155.97;5020447;28;20044;-63
2021/08/26 10:01:13;;;;;;;5.78;1.80;;;;;;;15.66;100.00;101153.63;5021908;28;20046;-63
2021/08/26 10:03:42;;;;;;;2.80;1.30;;;;;;;16.17;100.00;101163.56;5024087;28;20073;-63
2021/08/26 10:06:11;;;;;;;4.45;2.05;;;;;;;16.55;100.00;101161.63;5025527;28;20046;-63
2021/08/26 10:08:43;;;;;;;2.95;1.48;;;;;;;16.26;100.00;101158.00;5020424;28;20048;-63
2021/08/26 10:11:11;;;;;;;6.78;2.00;;;;;;;16.90;100.00;101153.59;5022612;28;20057;-63
2021/08/26 10:13:41;;;;;;;5.57;1.90;;;;;;;17.17;100.00;101151.94;5023228;28;20068;-63
2021/08/26 10:16:09;;;;;;;9.13;2.78;;;;;;;17.71;100.00;101153.84;5022865;28;20037;-63
2021/08/26 10:18:38;;;;;;;7.90;1.58;;;;;;;17.47;100.00;101152.50;5025973;28;20072;-64
2021/08/26 10:21:08;;;;;;;5.05;1.90;;;;;;;18.78;100.00;101155.06;5020130;28;20057;-63
2021/08/26 10:23:38;;;;;;;4.95;1.70;;;;;;;18.93;100.00;101150.28;5023062;28;20388;-63
2021/08/26 10:26:07;;;;;;;6.75;1.73;;;;;;;18.96;100.00;101144.44;5023617;28;20087;-63
2021/08/26 10:28:37;;;;;;;2.78;1.73;;;;;;;17.53;100.00;101140.88;5018901;28;20092;-63
2021/08/26 10:31:23;;;;;;;7.25;2.15;;;;;;;16.99;100.00;101145.16;5023542;28;20037;-63
2021/08/26 10:34:08;;;;;;;6.00;1.90;;;;;;;16.26;100.00;101153.47;5022694;28;20360;-64
2021/08/26 10:37:01;;;;;;;6.22;1.65;;;;;;;15.48;100.00;101159.41;5024015;28;20096;-63
2021/08/26 10:39:30;;;;;;;5.43;2.47;;;;;;;15.25;100.00;101161.38;5022920;28;20487;-62
2021/08/26 10:42:17;;;;;;;3.90;2.58;;;;;;;15.42;100.00;101170.94;5022554;28;20049;-62
2021/08/26 10:45:00;;;;;;;2.67;1.40;;;;;;;16.09;100.00;101160.13;5021581;28;20061;-63
2021/08/26 10:48:02;;;;;;;4.75;1.67;;;;;;;16.74;100.00;101149.31;5024966;28;20395;-62
2021/08/26 10:50:34;;;;;;;3.75;2.15;;;;;;;17.45;100.00;101156.41;5019931;28;20053;-64
2021/08/26 10:53:04;;;;;;;7.50;2.60;;;;;;;18.24;100.00;101153.19;5022154;28;20041;-63
2021/08/26 10:55:37;;;;;;;4.50;1.60;;;;;;;19.58;100.00;101147.59;5021670;28;20046;-63
2021/08/26 10:58:38;;;;;;;3.53;1.45;;;;;;;18.32;100.00;101148.63;5022335;28;20091;-63
2021/08/26 11:01:08;;;;;;;6.35;1.80;;;;;;;16.67;100.00;101162.72;4948308;28;20134;-62
2021/08/26 11:03:53;;;;;;;5.47;1.90;;;;;;;16.21;100.00;101165.88;5010539;28;20140;-63
2021/08/26 11:06:39;;;;;;;5.05;1.98;;;;;;;16.20;100.00;101162.31;5021201;28;20049;-62
2021/08/26 11:09:34;;;;;;;8.27;2.42;;;;;;;16.17;100.00;101158.16;5021682;28;20056;-62
2021/08/26 11:12:25;;;;;;;3.83;1.90;;;;;;;16.26;100.00;101161.56;5020918;28;20045;-62
2021/08/26 11:14:58;;;;;;;5.85;1.77;;;;;;;16.82;100.00;101152.69;5018729;28;20049;-65
2021/08/26 11:17:31;;;;;;;9.52;2.83;;;;;;;17.12;100.00;101149.81;5023291;28;20426;-63
2021/08/26 11:20:00;;;;;;;14.57;2.83;;;;;;;17.70;100.00;101148.63;5020036;28;20388;-62
2021/08/26 11:22:30;;;;;;;6.60;2.10;;;;;;;18.35;100.00;101142.78;5023233;28;20046;-63
2021/08/26 11:24:59;;;;;;;8.80;2.90;;;;;;;17.89;100.00;101138.94;5023089;28;20045;-63
2021/08/26 11:27:29;;;;;;;10.25;2.20;;;;;;;18.75;100.00;101138.22;5022420;28;20048;-63
2021/08/26 11:29:58;;;;;;;5.15;1.80;;;;;;;19.29;100.00;101137.28;5020771;28;20037;-63